Time;durP1;ratioP1;P1;durP2;ratioP2;P2;SDS_P1;SDS_P2;PMS_P1;PMS_P2;Temp;Humidity;BMP_temperature;BMP_pressure;BME280_temperature;BME280_humidity;BME280_pressure;Samples;Min_cycle;Max_cycle;Signal;HPM_P1;HPM_P2
2021/06/03 00:01:33;;;;;;;4.37;2.50;;;;;;;12.53;49.86;97215.79;1754628;80;21333;-77
2021/06/03 00:03:59;;;;;;;4.78;2.50;;;;;;;12.56;49.73;97218.05;1767103;80;20975;-77
2021/06/03 00:06:25;;;;;;;2.55;2.33;;;;;;;12.56;49.92;97219.84;1773562;80;21321;-77
2021/06/03 00:08:51;;;;;;;4.00;2.72;;;;;;;12.51;50.15;97222.14;1767405;80;20886;-77
2021/06/03 00:11:17;;;;;;;4.28;2.50;;;;;;;12.46;50.77;97226.57;1767182;80;20997;-77
2021/06/03 00:13:44;;;;;;;3.62;2.45;;;;;;;12.39;50.25;97223.05;1743472;80;21318;-77
2021/06/03 00:16:12;;;;;;;3.70;2.40;;;;;;;12.38;50.48;97224.52;1770681;80;20932;-77
2021/06/03 00:18:39;;;;;;;3.12;2.47;;;;;;;12.33;50.70;97225.02;1732330;81;21016;-77
2021/06/03 00:21:05;;;;;;;2.65;2.30;;;;;;;12.28;50.57;97226.03;1765395;80;20964;-77
2021/06/03 00:23:30;;;;;;;2.90;2.50;;;;;;;12.29;50.61;97223.75;1764584;80;21238;-78
2021/06/03 00:25:56;;;;;;;4.60;2.52;;;;;;;12.27;51.00;97223.11;1770774;80;20979;-78
2021/06/03 00:28:22;;;;;;;4.12;2.58;;;;;;;12.22;51.13;97221.03;1774271;80;20939;-78
2021/06/03 00:30:48;;;;;;;2.70;2.50;;;;;;;12.20;51.05;97224.76;1766750;80;21257;-77
2021/06/03 00:33:14;;;;;;;5.03;2.80;;;;;;;12.18;51.04;97221.52;1766849;80;20909;-77
2021/06/03 00:35:40;;;;;;;3.55;2.27;;;;;;;12.15;50.91;97223.17;1768741;80;21055;-77
2021/06/03 00:38:06;;;;;;;4.47;2.72;;;;;;;12.15;51.11;97227.08;1735455;80;20996;-77
2021/06/03 00:40:32;;;;;;;4.90;2.87;;;;;;;12.14;51.04;97224.16;1777511;80;20874;-77
2021/06/03 00:42:57;;;;;;;4.08;2.62;;;;;;;12.13;51.45;97224.64;1770712;80;20893;-77
2021/06/03 00:45:33;;;;;;;3.27;2.30;;;;;;;12.12;50.86;97224.33;1767092;80;21281;-77
2021/06/03 00:47:59;;;;;;;3.37;2.60;;;;;;;12.12;50.83;97223.02;1769521;80;20983;-77
2021/06/03 00:50:35;;;;;;;2.77;2.50;;;;;;;12.09;51.88;97220.77;1775585;80;20971;-77
2021/06/03 00:53:03;;;;;;;3.37;2.50;;;;;;;12.02;51.38;97218.01;1762250;80;20955;-77
2021/06/03 00:55:28;;;;;;;4.55;2.87;;;;;;;12.03;51.25;97224.03;1767691;80;20924;-77
2021/06/03 00:57:55;;;;;;;3.87;2.30;;;;;;;12.02;51.17;97221.91;1770203;80;21017;-77
2021/06/03 01:00:22;;;;;;;3.70;2.05;;;;;;;12.03;51.36;97223.54;1778522;80;20987;-77
2021/06/03 01:02:47;;;;;;;3.80;2.80;;;;;;;12.04;50.88;97226.98;1769855;80;20877;-77
2021/06/03 01:05:18;;;;;;;3.15;2.22;;;;;;;12.08;51.38;97219.14;1758639;80;21067;-77
2021/06/03 01:07:44;;;;;;;6.20;2.17;;;;;;;12.10;50.89;97213.76;1763826;80;20976;-77
2021/06/03 01:10:21;;;;;;;2.35;2.12;;;;;;;12.14;50.31;97209.83;1763410;80;20980;-77
2021/06/03 01:13:22;;;;;;;3.42;2.27;;;;;;;12.18;50.63;97214.52;1764701;80;20971;-77
2021/06/03 01:15:48;;;;;;;3.67;2.20;;;;;;;12.23;49.98;97214.02;1775282;80;21011;-77
2021/06/03 01:18:14;;;;;;;2.65;2.20;;;;;;;12.32;50.20;97217.69;1780365;80;21000;-78
2021/06/03 01:20:44;;;;;;;2.85;2.45;;;;;;;12.32;50.17;97218.19;1771374;80;21072;-77
2021/06/03 01:23:36;;;;;;;4.22;2.62;;;;;;;12.36;50.06;97224.67;1770752;80;20995;-77
2021/06/03 01:26:01;;;;;;;5.50;2.42;;;;;;;12.36;50.33;97227.27;1768914;80;20984;-77
2021/06/03 01:28:27;;;;;;;2.65;2.10;;;;;;;12.32;50.01;97232.52;1766586;80;20973;-77
2021/06/03 01:30:55;;;;;;;3.92;3.02;;;;;;;12.25;49.93;97230.29;1768226;80;21543;-77
2021/06/03 01:33:25;;;;;;;3.35;2.15;;;;;;;12.21;50.25;97229.83;1770777;80;20991;-77
2021/06/03 01:35:55;;;;;;;2.70;2.40;;;;;;;12.12;50.06;97235.23;1772360;80;21393;-77
2021/06/03 01:38:28;;;;;;;3.77;2.50;;;;;;;12.10;50.42;97233.30;1762337;80;21301;-77
2021/06/03 01:40:53;;;;;;;3.67;2.60;;;;;;;12.05;51.24;97233.00;1766755;80;20916;-77
2021/06/03 01:43:21;;;;;;;4.58;2.58;;;;;;;11.95;52.25;97237.91;1773266;80;20927;-77
2021/06/03 01:45:48;;;;;;;2.87;2.20;;;;;;;11.86;52.40;97235.01;1773915;80;20967;-77
2021/06/03 01:48:18;;;;;;;2.92;2.17;;;;;;;11.83;51.51;97234.54;1765115;80;20936;-78
2021/06/03 01:50:44;;;;;;;2.80;2.22;;;;;;;11.81;51.33;97236.50;1764455;80;20992;-77
2021/06/03 01:53:10;;;;;;;3.90;2.40;;;;;;;11.81;51.19;97237.80;1731368;80;21337;-77
2021/06/03 01:55:36;;;;;;;3.08;2.30;;;;;;;11.71;51.27;97223.17;1767627;80;21003;-77
2021/06/03 01:58:03;;;;;;;3.95;2.22;;;;;;;11.79;51.35;97237.16;1769344;80;21353;-77
2021/06/03 02:00:29;;;;;;;4.00;2.05;;;;;;;11.76;52.17;97246.09;1768151;80;20980;-76
2021/06/03 02:02:54;;;;;;;3.47;2.35;;;;;;;11.73;51.72;97247.25;1760169;80;21369;-76
2021/06/03 02:05:20;;;;;;;2.75;2.33;;;;;;;11.72;52.71;97240.91;1766657;80;21114;-76
2021/06/03 02:07:46;;;;;;;3.05;2.45;;;;;;;11.69;52.52;97243.83;1758867;80;21002;-76
2021/06/03 02:10:14;;;;;;;2.67;2.20;;;;;;;11.63;52.65;97241.90;1767491;80;20915;-76
2021/06/03 02:12:53;;;;;;;3.40;2.33;;;;;;;11.58;52.62;97249.41;1762662;80;20972;-76
2021/06/03 02:15:19;;;;;;;3.95;2.27;;;;;;;11.53;52.70;97255.58;1772346;80;20956;-76
2021/06/03 02:17:51;;;;;;;3.60;2.55;;;;;;;11.46;52.74;97245.52;1760936;80;20995;-76
2021/06/03 02:20:19;;;;;;;;;;;;;;;11.38;53.59;97252.84;1761152;80;21012;-76
2021/06/03 02:22:48;;;;;;;2.60;2.15;;;;;;;11.29;53.46;97249.45;1763558;80;20101;-76
2021/06/03 02:25:14;;;;;;;3.92;2.25;;;;;;;11.20;53.51;97247.02;1770442;80;20979;-76
2021/06/03 02:27:40;;;;;;;4.03;2.80;;;;;;;11.13;54.23;97245.56;1769320;80;20944;-76
2021/06/03 02:30:07;;;;;;;4.95;2.62;;;;;;;11.06;53.86;97249.33;1769462;80;20893;-76
2021/06/03 02:32:34;;;;;;;3.85;2.62;;;;;;;11.02;54.49;97248.49;1762407;80;21011;-76
2021/06/03 02:35:00;;;;;;;4.47;3.10;;;;;;;11.02;54.66;97254.50;1769366;80;20984;-76
2021/06/03 02:37:25;;;;;;;3.50;2.60;;;;;;;11.02;54.42;97245.41;1775758;80;20988;-76
2021/06/03 02:40:00;;;;;;;4.37;2.65;;;;;;;11.04;55.81;97242.14;1767037;80;21009;-76
2021/06/03 02:42:26;;;;;;;4.03;2.70;;;;;;;11.05;54.54;97241.66;1761603;80;20948;-76
2021/06/03 02:44:52;;;;;;;3.72;2.33;;;;;;;11.08;54.69;97244.77;1776826;80;21246;-76
2021/06/03 02:47:18;;;;;;;3.17;2.37;;;;;;;11.10;54.93;97242.00;1768620;80;20874;-77
2021/06/03 02:49:44;;;;;;;3.52;2.08;;;;;;;11.10;54.37;97243.30;1761755;80;21023;-76
2021/06/03 02:52:10;;;;;;;2.40;2.20;;;;;;;11.16;53.39;97240.52;1767726;80;20920;-76
2021/06/03 02:54:36;;;;;;;2.83;2.25;;;;;;;11.24;53.87;97250.94;1764873;80;20980;-76
2021/06/03 02:57:01;;;;;;;4.17;2.67;;;;;;;11.28;53.46;97251.73;1768422;80;20948;-76
2021/06/03 02:59:27;;;;;;;5.22;3.20;;;;;;;11.30;54.10;97260.19;1755418;80;20916;-76
2021/06/03 03:01:53;;;;;;;4.55;2.52;;;;;;;11.19;54.16;97256.61;1773979;80;21316;-76
2021/06/03 03:04:19;;;;;;;3.17;2.58;;;;;;;11.20;53.56;97254.33;1768195;80;20952;-76
2021/06/03 03:06:44;;;;;;;3.37;2.83;;;;;;;11.28;53.94;97254.83;1760172;80;20956;-77
2021/06/03 03:09:10;;;;;;;2.83;2.50;;;;;;;11.30;53.44;97261.48;1757939;80;21361;-77
2021/06/03 03:11:36;;;;;;;4.62;3.15;;;;;;;11.38;53.94;97260.16;1758183;80;20960;-77
2021/06/03 03:14:02;;;;;;;5.85;2.80;;;;;;;11.36;54.18;97257.41;1752228;80;20896;-77
2021/06/03 03:16:27;;;;;;;4.83;2.75;;;;;;;11.33;53.80;97261.15;1763199;80;20983;-77
2021/06/03 03:18:53;;;;;;;4.03;2.85;;;;;;;11.36;53.51;97262.11;1756994;80;20992;-76
2021/06/03 03:21:19;;;;;;;3.12;2.25;;;;;;;11.38;54.26;97258.86;1749367;80;20928;-77
2021/06/03 03:23:45;;;;;;;3.67;1.85;;;;;;;11.40;53.21;97263.44;1752600;80;20943;-77
2021/06/03 03:26:10;;;;;;;3.08;2.30;;;;;;;11.49;53.51;97259.01;1748984;80;20913;-77
2021/06/03 03:28:36;;;;;;;3.60;2.05;;;;;;;11.52;53.10;97264.37;1758359;80;20963;-77
2021/06/03 03:31:02;;;;;;;3.92;2.02;;;;;;;11.60;52.54;97257.86;1749308;80;20885;-76
2021/06/03 03:33:29;;;;;;;2.72;1.98;;;;;;;11.71;52.25;97258.33;1740680;80;20969;-76
2021/06/03 03:35:57;;;;;;;3.42;2.40;;;;;;;11.83;51.98;97264.48;1751811;80;21317;-75
2021/06/03 03:38:27;;;;;;;2.17;1.90;;;;;;;11.94;51.59;97255.83;1753591;80;21043;-76
2021/06/03 03:40:52;;;;;;;3.90;2.22;;;;;;;12.10;51.30;97252.83;1744307;80;21209;-76
2021/06/03 03:43:18;;;;;;;2.22;1.70;;;;;;;12.19;51.01;97265.63;1762553;80;20984;-76
2021/06/03 03:45:44;;;;;;;4.37;1.90;;;;;;;12.28;50.41;97258.61;1763409;80;20930;-76
2021/06/03 03:48:10;;;;;;;2.08;1.87;;;;;;;12.40;50.79;97265.55;1755742;80;21020;-76
2021/06/03 03:50:36;;;;;;;2.30;1.60;;;;;;;12.47;50.13;97256.05;1761974;80;21298;-76
2021/06/03 03:53:03;;;;;;;2.22;1.90;;;;;;;12.54;50.13;97260.92;1763959;80;21229;-76
2021/06/03 03:55:29;;;;;;;3.10;1.67;;;;;;;12.59;50.03;97267.72;1753231;80;20917;-76
2021/06/03 03:57:55;;;;;;;3.77;1.57;;;;;;;12.63;49.97;97272.91;1753072;80;20929;-76
2021/06/03 04:00:25;;;;;;;2.85;2.15;;;;;;;12.68;49.01;97265.36;1745691;80;20991;-76
2021/06/03 04:02:51;;;;;;;2.27;1.70;;;;;;;12.76;49.45;97262.72;1761584;80;21011;-76
2021/06/03 04:05:17;;;;;;;3.33;1.72;;;;;;;12.83;49.33;97265.42;1770009;80;20889;-75
2021/06/03 04:07:43;;;;;;;2.47;1.90;;;;;;;12.86;49.64;97272.44;1758638;80;21460;-76
2021/06/03 04:10:13;;;;;;;3.42;1.90;;;;;;;12.89;49.65;97280.41;1750657;80;20910;-76
2021/06/03 04:12:40;;;;;;;2.80;1.82;;;;;;;12.89;49.20;97272.58;1770208;80;20978;-76
2021/06/03 04:15:06;;;;;;;3.45;1.65;;;;;;;12.92;49.05;97269.61;1757184;80;20960;-76
2021/06/03 04:17:32;;;;;;;2.47;1.80;;;;;;;12.97;49.12;97279.02;1752539;80;21055;-76
2021/06/03 04:19:58;;;;;;;3.05;1.82;;;;;;;13.00;49.26;97278.67;1748097;80;20904;-76
2021/06/03 04:22:25;;;;;;;3.95;2.22;;;;;;;13.02;49.04;97278.03;1749779;80;21276;-76
2021/06/03 04:24:51;;;;;;;2.72;1.70;;;;;;;13.05;49.18;97277.67;1750712;80;20959;-76
2021/06/03 04:27:17;;;;;;;3.92;2.10;;;;;;;13.09;48.66;97278.13;1753132;80;20983;-75
2021/06/03 04:29:42;;;;;;;2.27;1.80;;;;;;;13.13;48.94;97272.37;1749812;80;21028;-76
2021/06/03 04:32:08;;;;;;;2.67;2.17;;;;;;;13.17;49.08;97271.52;1755664;80;21051;-76
2021/06/03 04:34:34;;;;;;;5.10;2.52;;;;;;;13.18;50.09;97271.41;1755376;80;20980;-76
2021/06/03 04:37:00;;;;;;;2.75;2.27;;;;;;;13.18;49.05;97274.51;1755000;80;20964;-76
2021/06/03 04:39:27;;;;;;;2.80;1.70;;;;;;;13.23;48.97;97275.27;1765185;80;21399;-76
2021/06/03 04:41:53;;;;;;;2.33;1.90;;;;;;;13.25;49.17;97278.52;1754056;80;20952;-76
2021/06/03 04:44:19;;;;;;;3.50;1.87;;;;;;;13.27;49.04;97279.95;1764601;80;20956;-75
2021/06/03 04:46:44;;;;;;;2.70;1.82;;;;;;;13.30;49.19;97291.34;1764811;80;20967;-76
2021/06/03 04:49:10;;;;;;;3.45;1.90;;;;;;;13.34;48.84;97287.42;1759423;80;20947;-76
2021/06/03 04:51:38;;;;;;;2.50;1.87;;;;;;;13.38;49.11;97288.68;1759437;80;20921;-76
2021/06/03 04:54:05;;;;;;;2.27;1.82;;;;;;;13.42;48.54;97288.63;1753548;80;20952;-77
2021/06/03 04:56:31;;;;;;;2.42;1.95;;;;;;;13.47;48.99;97295.43;1762658;80;20995;-76
2021/06/03 04:58:57;;;;;;;2.80;1.92;;;;;;;13.50;48.67;97291.65;1759530;80;21000;-76
2021/06/03 05:01:23;;;;;;;2.58;1.75;;;;;;;13.55;48.22;97290.64;1754112;80;21325;-76
2021/06/03 05:03:48;;;;;;;2.52;2.15;;;;;;;13.60;47.91;97288.80;1757799;80;20940;-76
2021/06/03 05:06:15;;;;;;;3.92;1.90;;;;;;;13.64;47.98;97295.27;1756003;80;21131;-77
2021/06/03 05:08:41;;;;;;;3.12;2.08;;;;;;;13.68;47.96;97296.06;1764812;80;21001;-76
2021/06/03 05:11:06;;;;;;;2.20;1.77;;;;;;;13.74;48.11;97291.92;1748954;80;20960;-77
2021/06/03 05:13:33;;;;;;;2.77;2.10;;;;;;;13.78;47.87;97298.40;1763360;80;20912;-77
2021/06/03 05:15:59;;;;;;;3.30;2.33;;;;;;;13.82;47.93;97303.08;1753074;80;20951;-77
2021/06/03 05:18:25;;;;;;;2.65;1.92;;;;;;;13.87;47.91;97291.30;1763373;80;21850;-77
2021/06/03 05:20:51;;;;;;;2.30;1.70;;;;;;;13.91;47.71;97299.09;1747378;80;20919;-77
2021/06/03 05:23:17;;;;;;;3.65;2.10;;;;;;;13.95;47.86;97302.95;1759865;80;21574;-77
2021/06/03 05:25:44;;;;;;;2.92;2.08;;;;;;;13.99;47.95;97304.20;1750383;80;20913;-77
2021/06/03 05:28:10;;;;;;;3.70;3.30;;;;;;;14.01;48.93;97308.29;1749832;80;20925;-78
2021/06/03 05:30:35;;;;;;;7.33;3.85;;;;;;;14.01;49.76;97312.70;1759721;80;20976;-77
2021/06/03 05:33:01;;;;;;;6.15;3.27;;;;;;;14.01;51.00;97312.70;1751886;81;21222;-77
2021/06/03 05:35:27;;;;;;;3.87;3.35;;;;;;;13.99;51.16;97315.50;1770492;80;20992;-77
2021/06/03 05:37:53;;;;;;;6.15;3.62;;;;;;;13.99;51.96;97315.50;1772364;80;21373;-77
2021/06/03 05:40:22;;;;;;;7.05;4.30;;;;;;;13.99;52.12;97323.34;1757614;80;20944;-77
2021/06/03 05:42:49;;;;;;;4.42;3.00;;;;;;;13.97;53.80;97319.26;1757780;80;20992;-77
2021/06/03 05:45:16;;;;;;;5.65;3.80;;;;;;;13.89;54.24;97311.52;1757678;80;20992;-81
2021/06/03 05:47:42;;;;;;;4.60;3.33;;;;;;;13.87;53.77;97318.73;1760149;81;20996;-76
2021/06/03 05:50:12;;;;;;;4.25;3.42;;;;;;;13.90;53.00;97319.67;1749472;81;22115;-77
2021/06/03 05:52:40;;;;;;;3.77;2.98;;;;;;;13.95;54.00;97319.44;1755926;80;21068;-77
2021/06/03 05:55:10;;;;;;;3.87;2.90;;;;;;;14.02;53.61;97319.55;1760299;80;20940;-78
2021/06/03 05:57:36;;;;;;;3.08;2.67;;;;;;;14.07;52.27;97312.78;1766099;80;21293;-77
2021/06/03 06:00:14;;;;;;;3.35;2.62;;;;;;;14.13;54.07;97314.66;1767578;80;20971;-77
2021/06/03 06:02:49;;;;;;;2.62;1.90;;;;;;;14.18;54.23;97323.28;1750172;80;20976;-76
2021/06/03 06:08:01;;;;;;;4.33;2.40;;;;;;;14.34;50.93;97320.48;1758176;80;21059;-76
2021/06/03 06:10:27;;;;;;;2.50;2.12;;;;;;;14.45;50.61;97322.33;1771328;80;20963;-77
2021/06/03 06:12:55;;;;;;;3.52;2.70;;;;;;;14.53;51.47;97320.92;1748375;81;21317;-76
2021/06/03 06:15:21;;;;;;;4.25;2.62;;;;;;;14.58;52.49;97329.02;1757452;80;21016;-76
2021/06/03 06:17:47;;;;;;;3.35;2.75;;;;;;;14.65;51.51;97330.73;1760120;80;20983;-77
2021/06/03 06:20:15;;;;;;;3.45;2.58;;;;;;;14.74;51.77;97330.11;1768223;80;21294;-76
2021/06/03 06:22:41;;;;;;;3.75;2.40;;;;;;;14.81;51.26;97336.25;1760192;80;21048;-77
2021/06/03 06:25:08;;;;;;;3.27;2.50;;;;;;;14.88;50.64;97332.38;1742519;80;21503;-76
2021/06/03 06:27:35;;;;;;;5.85;2.87;;;;;;;14.99;51.71;97333.21;1754609;80;20921;-77
2021/06/03 06:30:03;;;;;;;7.12;2.10;;;;;;;15.06;51.46;97329.34;1750494;80;20932;-76
2021/06/03 06:32:29;;;;;;;3.65;2.45;;;;;;;15.13;49.97;97334.13;1760195;81;20986;-77
2021/06/03 06:34:54;;;;;;;3.00;2.58;;;;;;;15.21;52.50;97340.56;1753780;81;20965;-77
2021/06/03 06:37:20;;;;;;;4.45;2.40;;;;;;;15.23;51.38;97336.75;1754766;81;21263;-76
2021/06/03 06:39:46;;;;;;;4.05;3.00;;;;;;;15.35;50.36;97342.30;1753768;81;20897;-76
2021/06/03 06:42:11;;;;;;;3.80;2.40;;;;;;;15.49;50.73;97344.05;1764259;80;20916;-76
2021/06/03 06:44:37;;;;;;;3.20;2.40;;;;;;;15.58;52.68;97347.32;1725306;81;20964;-76
2021/06/03 06:47:04;;;;;;;8.08;5.20;;;;;;;15.63;49.86;97353.36;1759047;81;20911;-76
2021/06/03 06:49:30;;;;;;;5.40;3.30;;;;;;;15.76;50.96;97352.93;1765673;81;20921;-76
2021/06/03 06:51:57;;;;;;;6.08;4.30;;;;;;;15.89;50.45;97358.77;1748398;80;20977;-77
2021/06/03 06:54:23;;;;;;;3.77;2.87;;;;;;;16.01;50.17;97356.44;1762158;80;20987;-76
2021/06/03 06:56:48;;;;;;;3.45;2.98;;;;;;;16.10;50.87;97348.72;1744395;80;20946;-76
2021/06/03 06:59:14;;;;;;;4.33;2.42;;;;;;;16.17;51.18;97354.33;1766583;80;20973;-77
2021/06/03 07:01:40;;;;;;;4.40;3.67;;;;;;;16.27;49.44;97359.70;1751273;80;20995;-77
2021/06/03 07:04:06;;;;;;;5.00;3.30;;;;;;;16.39;50.04;97355.03;1770756;81;20933;-77
2021/06/03 07:06:32;;;;;;;4.90;2.72;;;;;;;16.50;49.18;97347.93;1759661;81;21015;-77
2021/06/03 07:08:57;;;;;;;3.00;2.55;;;;;;;16.61;50.17;97350.52;1772111;80;20925;-77
2021/06/03 07:11:24;;;;;;;4.47;3.02;;;;;;;16.66;50.71;97357.28;1767987;80;21266;-77
2021/06/03 07:13:51;;;;;;;5.83;3.37;;;;;;;16.74;50.31;97359.75;1759395;81;20918;-76
2021/06/03 07:16:18;;;;;;;6.22;4.60;;;;;;;16.79;50.40;97359.98;1736856;81;21305;-77
2021/06/03 07:18:44;;;;;;;5.08;4.20;;;;;;;16.86;50.62;97360.50;1746331;81;20941;-77
2021/06/03 07:21:10;;;;;;;3.83;3.25;;;;;;;16.95;50.22;97359.33;1760363;81;21262;-77
2021/06/03 07:23:35;;;;;;;4.87;3.40;;;;;;;17.01;50.04;97355.41;1770874;81;20949;-77
2021/06/03 07:26:01;;;;;;;4.50;3.52;;;;;;;17.08;49.27;97361.97;1764830;80;20893;-76
2021/06/03 07:28:27;;;;;;;4.35;3.00;;;;;;;17.09;50.48;97360.98;1766736;80;21203;-77
2021/06/03 07:30:53;;;;;;;4.75;3.27;;;;;;;17.15;49.65;97354.13;1752913;81;21225;-76
2021/06/03 07:33:19;;;;;;;3.85;2.85;;;;;;;17.22;48.72;97352.30;1765206;80;20960;-77
2021/06/03 07:35:44;;;;;;;3.90;2.77;;;;;;;17.24;48.67;97349.78;1766817;80;21215;-76
2021/06/03 07:38:11;;;;;;;3.62;2.85;;;;;;;17.27;48.14;97350.72;1760346;80;20997;-78
2021/06/03 07:40:38;;;;;;;3.25;2.72;;;;;;;17.36;48.06;97356.56;1754040;80;21223;-78
2021/06/03 07:43:06;;;;;;;5.95;3.27;;;;;;;17.44;48.05;97356.89;1769459;81;21067;-76
2021/06/03 07:45:32;;;;;;;3.65;2.70;;;;;;;17.49;49.70;97355.27;1761191;81;20927;-76
2021/06/03 07:47:58;;;;;;;3.47;3.12;;;;;;;17.49;49.88;97357.90;1756302;81;20888;-78
2021/06/03 07:50:27;;;;;;;2.90;2.20;;;;;;;17.51;49.43;97360.33;1769743;81;20910;-77
2021/06/03 07:52:53;;;;;;;2.75;2.30;;;;;;;17.58;50.20;97360.65;1772024;80;21257;-77
2021/06/03 07:55:19;;;;;;;2.77;1.90;;;;;;;17.65;48.84;97355.38;1744860;80;21056;-76
2021/06/03 07:57:48;;;;;;;4.78;2.85;;;;;;;17.78;47.68;97357.23;1772386;80;20998;-76
2021/06/03 08:00:16;;;;;;;3.42;2.08;;;;;;;17.83;47.52;97354.28;1767597;80;20980;-77
2021/06/03 08:02:43;;;;;;;2.92;2.67;;;;;;;17.81;46.62;97358.13;1764444;81;20975;-76
2021/06/03 08:05:10;;;;;;;4.10;3.00;;;;;;;17.92;46.90;97353.58;1748977;81;21008;-78
2021/06/03 08:07:36;;;;;;;3.05;2.67;;;;;;;18.10;46.53;97356.38;1746421;80;21366;-77
2021/06/03 08:10:05;;;;;;;2.50;2.20;;;;;;;18.25;45.75;97360.91;1774522;80;20961;-78
2021/06/03 08:12:31;;;;;;;3.25;2.30;;;;;;;18.42;45.65;97358.63;1759087;80;20897;-78
2021/06/03 08:14:57;;;;;;;3.42;2.40;;;;;;;18.64;45.59;97366.27;1767662;81;20961;-77
2021/06/03 08:17:22;;;;;;;4.22;2.65;;;;;;;18.69;45.08;97356.72;1775504;80;21001;-77
2021/06/03 08:19:48;;;;;;;3.17;2.37;;;;;;;18.87;45.69;97362.13;1749443;80;21060;-77
2021/06/03 08:22:14;;;;;;;2.67;2.00;;;;;;;19.05;45.43;97360.11;1755204;80;20968;-77
2021/06/03 08:24:39;;;;;;;3.22;2.35;;;;;;;19.24;44.51;97358.38;1757344;80;22480;-78
2021/06/03 08:27:06;;;;;;;3.45;2.20;;;;;;;19.39;44.59;97348.34;1748719;80;20965;-78
2021/06/03 08:29:32;;;;;;;2.70;2.02;;;;;;;19.37;43.60;97350.39;1775177;81;20881;-78
2021/06/03 08:31:59;;;;;;;2.98;2.40;;;;;;;19.57;42.63;97352.09;1773973;80;20968;-78
2021/06/03 08:34:24;;;;;;;3.45;2.27;;;;;;;19.71;42.64;97362.83;1764802;81;20905;-77
2021/06/03 08:36:50;;;;;;;2.87;2.42;;;;;;;19.85;43.67;97355.59;1763930;80;20968;-77
2021/06/03 08:39:16;;;;;;;3.90;2.20;;;;;;;19.61;45.05;97361.98;1773062;80;20946;-78
2021/06/03 08:41:45;;;;;;;3.22;1.85;;;;;;;19.31;44.92;97367.03;1769607;80;21016;-78
2021/06/03 08:44:11;;;;;;;4.17;1.92;;;;;;;19.20;44.57;97361.14;1762978;80;21027;-77
2021/06/03 08:46:37;;;;;;;2.98;2.00;;;;;;;18.98;42.61;97355.88;1753434;80;21004;-78
2021/06/03 08:49:04;;;;;;;2.60;1.90;;;;;;;19.00;43.93;97361.23;1763965;80;20961;-77
2021/06/03 08:51:31;;;;;;;3.62;2.05;;;;;;;19.19;43.02;97362.94;1759552;80;21439;-77
2021/06/03 08:53:57;;;;;;;3.83;2.33;;;;;;;19.45;43.57;97358.02;1759044;80;21013;-78
2021/06/03 08:56:23;;;;;;;3.25;2.15;;;;;;;19.75;41.21;97354.27;1754791;80;20975;-77
2021/06/03 08:58:52;;;;;;;3.58;2.12;;;;;;;20.02;41.28;97352.72;1773838;80;20960;-77
2021/06/03 09:01:18;;;;;;;5.08;2.00;;;;;;;20.06;40.85;97361.80;1774529;80;20913;-77
2021/06/03 09:03:44;;;;;;;2.33;1.85;;;;;;;19.91;40.69;97362.66;1763180;80;20932;-77
2021/06/03 09:06:12;;;;;;;4.60;2.20;;;;;;;19.69;42.41;97363.56;1766967;80;20961;-77
2021/06/03 09:08:38;;;;;;;2.08;1.67;;;;;;;19.51;45.22;97362.94;1765351;80;21033;-77
2021/06/03 09:11:16;;;;;;;3.72;2.05;;;;;;;19.43;42.50;97351.35;1743749;80;20981;-77
2021/06/03 09:13:47;;;;;;;2.67;1.85;;;;;;;19.35;44.88;97352.91;1769086;80;20991;-77
2021/06/03 09:16:17;;;;;;;4.47;2.20;;;;;;;19.49;44.03;97355.24;1760985;80;21302;-77
2021/06/03 09:18:54;;;;;;;2.62;1.75;;;;;;;19.76;44.46;97359.84;1774355;81;20945;-77
2021/06/03 09:21:27;;;;;;;2.52;2.00;;;;;;;19.65;43.08;97364.48;1772349;80;20929;-77
2021/06/03 09:24:03;;;;;;;2.67;2.00;;;;;;;19.51;43.72;97360.30;1769484;80;20912;-78
2021/06/03 09:26:36;;;;;;;4.17;2.60;;;;;;;19.38;43.34;97356.46;1774950;80;20960;-78
2021/06/03 09:29:04;;;;;;;3.30;2.35;;;;;;;19.24;42.85;97358.89;1772277;80;20927;-79
2021/06/03 09:31:36;;;;;;;3.50;2.45;;;;;;;19.08;41.99;97347.83;1775013;80;20924;-78
2021/06/03 09:34:14;;;;;;;3.27;2.10;;;;;;;19.24;43.18;97349.16;1755741;80;20931;-78
2021/06/03 09:36:50;;;;;;;3.75;2.30;;;;;;;19.31;42.88;97355.69;1757175;80;20965;-78
2021/06/03 09:39:26;;;;;;;3.22;2.37;;;;;;;19.26;43.50;97348.94;1761646;80;20968;-78
2021/06/03 09:42:08;;;;;;;3.87;2.12;;;;;;;19.40;44.55;97349.95;1755897;80;21107;-78
2021/06/03 09:44:38;;;;;;;3.20;2.00;;;;;;;19.47;42.89;97353.84;1737071;82;21036;-76
2021/06/03 09:47:12;;;;;;;4.12;2.20;;;;;;;19.49;43.03;97353.92;1745096;80;20893;-78
2021/06/03 09:49:55;;;;;;;2.47;2.27;;;;;;;19.46;43.79;97353.04;1754525;81;20991;-78
2021/06/03 09:52:25;;;;;;;2.35;2.02;;;;;;;19.45;44.98;97352.75;1759765;80;20925;-77
2021/06/03 09:54:56;;;;;;;2.70;2.33;;;;;;;19.32;44.79;97353.34;1771320;80;21231;-77
2021/06/03 09:57:32;;;;;;;4.93;2.43;;;;;;;19.19;45.49;97355.03;1760061;80;20947;-77
2021/06/03 10:00:02;;;;;;;3.17;2.05;;;;;;;19.10;44.97;97355.52;1760445;80;21075;-78
2021/06/03 10:02:32;;;;;;;3.20;2.27;;;;;;;19.03;44.20;97354.73;1769645;80;20965;-78
2021/06/03 10:04:57;;;;;;;2.45;2.08;;;;;;;18.96;43.70;97357.92;1761317;80;21074;-78
2021/06/03 10:07:27;;;;;;;5.10;2.15;;;;;;;18.88;43.83;97356.36;1735720;81;21079;-78
2021/06/03 10:10:10;;;;;;;3.37;2.42;;;;;;;18.85;43.88;97358.88;1747580;81;21060;-78
2021/06/03 10:12:42;;;;;;;3.37;2.08;;;;;;;18.85;44.28;97354.92;1730663;81;20986;-78
2021/06/03 10:15:13;;;;;;;3.20;1.95;;;;;;;19.07;43.70;97350.17;1733827;81;20941;-77
2021/06/03 10:17:54;;;;;;;3.10;2.17;;;;;;;19.44;43.32;97345.05;1727172;81;21068;-79
2021/06/03 10:20:43;;;;;;;2.52;1.95;;;;;;;19.78;44.76;97347.23;1738194;81;21366;-77
2021/06/03 10:23:24;;;;;;;5.70;2.10;;;;;;;19.95;41.62;97346.69;1731970;81;21267;-76
2021/06/03 10:26:01;;;;;;;4.05;2.75;;;;;;;20.19;43.71;97351.13;1740234;81;21238;-77
2021/06/03 10:28:28;;;;;;;3.37;1.95;;;;;;;20.08;43.44;97346.56;1736925;81;20924;-77
2021/06/03 10:30:57;;;;;;;3.10;2.10;;;;;;;19.87;42.15;97348.30;1714348;81;20920;-77
2021/06/03 10:33:26;;;;;;;3.15;2.02;;;;;;;19.88;42.60;97350.71;1743958;81;20923;-76
2021/06/03 10:35:59;;;;;;;2.85;1.90;;;;;;;19.70;41.85;97342.25;1747263;81;20904;-77
2021/06/03 10:38:26;;;;;;;4.20;2.02;;;;;;;19.51;41.91;97348.44;1741585;81;22177;-78
2021/06/03 10:40:58;;;;;;;5.45;2.35;;;;;;;19.54;42.40;97341.95;1731973;81;20994;-78
2021/06/03 10:43:25;;;;;;;6.70;2.10;;;;;;;19.63;43.75;97340.16;1738034;81;21019;-78
2021/06/03 10:45:51;;;;;;;3.87;2.40;;;;;;;19.74;42.47;97340.79;1748779;81;21305;-77
2021/06/03 10:48:17;;;;;;;4.60;2.60;;;;;;;19.99;44.17;97343.90;1737494;81;21040;-76
2021/06/03 10:50:52;;;;;;;2.75;2.30;;;;;;;20.15;43.48;97345.97;1737677;81;20970;-77
2021/06/03 10:53:23;;;;;;;4.05;2.47;;;;;;;20.31;42.21;97348.55;1748673;81;20885;-78
2021/06/03 10:55:55;;;;;;;3.22;1.90;;;;;;;20.48;41.04;97335.08;1734534;81;20902;-77
2021/06/03 10:58:33;;;;;;;3.20;2.05;;;;;;;20.60;41.90;97339.11;1747904;81;20939;-77
2021/06/03 11:01:11;;;;;;;3.37;2.17;;;;;;;20.59;43.23;97338.31;1741542;81;21317;-78
2021/06/03 11:03:50;;;;;;;3.22;2.05;;;;;;;20.68;42.89;97334.86;1734942;81;20976;-78
2021/06/03 11:06:19;;;;;;;2.83;2.17;;;;;;;20.87;41.91;97330.34;1737355;81;21002;-77
2021/06/03 11:08:57;;;;;;;3.27;2.15;;;;;;;20.98;41.17;97329.05;1738735;80;21000;-77
2021/06/03 11:11:35;;;;;;;3.47;2.08;;;;;;;21.09;42.68;97324.84;1770996;80;21003;-77
2021/06/03 11:14:06;;;;;;;2.70;2.27;;;;;;;21.23;41.56;97326.78;1772592;80;20924;-77
2021/06/03 11:16:41;;;;;;;4.35;2.42;;;;;;;21.20;42.65;97326.73;1773884;80;20933;-77
2021/06/03 11:19:10;;;;;;;2.80;2.27;;;;;;;21.15;41.44;97324.45;1771786;80;21287;-78
2021/06/03 11:21:48;;;;;;;2.30;2.10;;;;;;;21.16;43.16;97319.48;1781852;80;20988;-76
2021/06/03 11:24:38;;;;;;;2.95;1.85;;;;;;;21.22;41.92;97315.41;1776997;80;20928;-78
2021/06/03 11:27:14;;;;;;;2.10;1.90;;;;;;;21.32;40.37;97314.89;1779491;80;20940;-78
2021/06/03 11:29:54;;;;;;;3.40;2.00;;;;;;;21.48;42.29;97316.08;1768617;80;21201;-78
2021/06/03 11:32:23;;;;;;;2.77;1.90;;;;;;;21.64;42.39;97315.40;1768127;80;20956;-78
2021/06/03 11:34:54;;;;;;;3.15;1.92;;;;;;;21.81;40.48;97321.62;1784047;80;20927;-79
2021/06/03 11:37:29;;;;;;;;;;;;;;;21.86;41.32;97320.40;1780396;80;20948;-78
2021/06/03 11:40:00;;;;;;;2.80;1.80;;;;;;;22.03;40.54;97319.18;1781797;80;20127;-78
2021/06/03 11:42:47;;;;;;;4.35;2.17;;;;;;;22.14;39.00;97324.22;1768061;80;20924;-79